createdAt,value
2024-02-29T00:01:44.848Z,9.03
2024-02-29T00:04:47.723Z,9.03
2024-02-29T00:07:50.512Z,8.92
2024-02-29T00:10:53.138Z,8.86
2024-02-29T00:13:56.148Z,8.80
2024-02-29T00:17:01.510Z,8.85
2024-02-29T00:20:10.210Z,8.83
2024-02-29T00:23:13.080Z,8.81
2024-02-29T00:26:19.616Z,8.78
2024-02-29T00:29:26.904Z,8.74
2024-02-29T00:32:29.763Z,8.70
2024-02-29T00:35:35.428Z,8.72
2024-02-29T00:38:39.970Z,8.72
2024-02-29T00:41:42.929Z,8.71
2024-02-29T00:44:45.757Z,8.73
2024-02-29T00:47:48.489Z,8.64
2024-02-29T00:50:51.273Z,8.69
2024-02-29T00:53:54.066Z,8.63
2024-02-29T00:56:56.862Z,8.46
2024-02-29T00:59:59.632Z,8.31
2024-02-29T01:03:03.712Z,8.19
2024-02-29T01:06:08.294Z,8.10
2024-02-29T01:09:11.235Z,8.11
2024-02-29T01:12:13.887Z,8.13
2024-02-29T01:15:17.212Z,8.14
2024-02-29T01:18:20.066Z,8.09
2024-02-29T01:21:22.917Z,8.13
2024-02-29T01:24:25.973Z,8.15
2024-02-29T01:27:28.889Z,8.13
2024-02-29T01:30:31.758Z,8.25
2024-02-29T01:33:34.627Z,8.24
2024-02-29T01:36:37.434Z,8.14
2024-02-29T01:39:40.240Z,8.06
2024-02-29T01:42:43.304Z,8.00
2024-02-29T01:45:47.161Z,7.93
2024-02-29T01:48:50.316Z,7.91
2024-02-29T01:51:54.302Z,7.92
2024-02-29T01:54:57.160Z,7.88
2024-02-29T01:57:59.930Z,7.79
2024-02-29T02:01:03.007Z,7.70
2024-02-29T02:04:05.839Z,7.73
2024-02-29T02:07:10.098Z,7.66
2024-02-29T02:10:13.290Z,7.65
2024-02-29T02:13:16.272Z,7.67
2024-02-29T02:16:19.081Z,7.66
2024-02-29T02:19:21.903Z,7.68
2024-02-29T02:22:25.807Z,7.66
2024-02-29T02:25:28.587Z,7.72
2024-02-29T02:28:31.349Z,7.66
2024-02-29T02:31:34.127Z,7.65
2024-02-29T02:34:36.942Z,7.51
2024-02-29T02:37:40.819Z,7.43
2024-02-29T02:40:43.553Z,7.42
2024-02-29T02:43:49.920Z,7.38
2024-02-29T02:46:52.701Z,7.35
2024-02-29T02:49:55.480Z,7.26
2024-02-29T02:53:05.612Z,7.29
2024-02-29T02:56:08.318Z,7.16
2024-02-29T02:59:11.168Z,7.20
2024-02-29T03:02:13.955Z,7.16
2024-02-29T03:05:17.169Z,7.04
2024-02-29T03:08:21.956Z,7.07
2024-02-29T03:11:24.747Z,7.08
2024-02-29T03:14:27.616Z,6.99
2024-02-29T03:17:31.034Z,6.96
2024-02-29T03:20:33.865Z,6.96
2024-02-29T03:23:36.562Z,6.89
2024-02-29T03:26:39.291Z,6.90
2024-02-29T03:29:43.613Z,6.87
2024-02-29T03:32:46.395Z,6.94
2024-02-29T03:35:49.190Z,6.92
2024-02-29T03:38:51.931Z,6.85
2024-02-29T03:41:54.581Z,6.81
2024-02-29T03:44:58.243Z,6.77
2024-02-29T03:48:01.236Z,6.74
2024-02-29T03:51:04.226Z,6.72
2024-02-29T03:54:06.937Z,6.68
2024-02-29T03:57:09.676Z,6.66
2024-02-29T04:00:13.378Z,6.72
2024-02-29T04:03:16.126Z,6.70
2024-02-29T04:06:18.934Z,6.79
2024-02-29T04:09:21.640Z,6.80
2024-02-29T04:12:24.372Z,6.84
2024-02-29T04:15:27.049Z,6.81
2024-02-29T04:18:29.791Z,6.84
2024-02-29T04:21:36.039Z,6.86
2024-02-29T04:24:38.913Z,6.90
2024-02-29T04:27:41.739Z,6.90
2024-02-29T04:30:44.625Z,6.85
2024-02-29T04:33:49.919Z,6.83
2024-02-29T04:36:54.594Z,6.80
2024-02-29T04:39:57.428Z,6.85
2024-02-29T04:43:00.367Z,6.88
2024-02-29T04:46:04.940Z,6.90
2024-02-29T04:49:07.802Z,6.96
2024-02-29T04:52:10.713Z,6.97
2024-02-29T04:55:13.572Z,7.00
2024-02-29T04:58:16.426Z,6.99
2024-02-29T05:01:19.268Z,7.05
2024-02-29T05:04:22.068Z,7.09
2024-02-29T05:07:24.825Z,7.09
2024-02-29T05:10:29.686Z,7.12
2024-02-29T05:13:32.340Z,7.17
2024-02-29T05:16:35.205Z,7.19
2024-02-29T05:19:39.262Z,7.15
2024-02-29T05:22:42.731Z,7.16
2024-02-29T05:25:45.405Z,7.18
2024-02-29T05:28:48.496Z,7.17
2024-02-29T05:31:54.945Z,7.19
2024-02-29T05:34:57.911Z,7.23
2024-02-29T05:38:00.872Z,7.19
2024-02-29T05:41:04.736Z,7.25
2024-02-29T05:44:09.031Z,7.19
2024-02-29T05:47:11.852Z,7.22
2024-02-29T05:50:14.640Z,7.24
2024-02-29T05:53:17.351Z,7.31
2024-02-29T05:56:19.994Z,7.30
2024-02-29T05:59:22.665Z,7.32
2024-02-29T06:02:25.475Z,7.36
2024-02-29T06:05:29.536Z,7.40
2024-02-29T06:08:32.326Z,7.42
2024-02-29T06:11:35.079Z,7.47
2024-02-29T06:14:37.839Z,7.53
2024-02-29T06:17:41.034Z,7.64
2024-02-29T06:20:43.943Z,7.63
2024-02-29T06:23:46.710Z,7.71
2024-02-29T06:27:10.980Z,7.85
2024-02-29T06:30:33.459Z,7.86
2024-02-29T06:33:37.602Z,7.86
2024-02-29T06:36:41.484Z,7.93
2024-02-29T06:39:44.235Z,7.98
2024-02-29T06:42:47.023Z,8.10
2024-02-29T06:45:50.866Z,8.26
2024-02-29T06:48:53.698Z,8.28
2024-02-29T06:51:56.612Z,8.35
2024-02-29T06:55:01.132Z,8.48
2024-02-29T06:58:06.041Z,8.58
2024-02-29T07:01:08.883Z,8.69
2024-02-29T07:04:11.824Z,8.70
2024-02-29T07:07:16.067Z,8.70
2024-02-29T07:10:18.951Z,8.78
2024-02-29T07:13:21.769Z,8.74
2024-02-29T07:16:24.652Z,8.86
2024-02-29T07:19:27.500Z,9.04
2024-02-29T07:22:30.234Z,8.96
2024-02-29T07:25:33.243Z,9.35
2024-02-29T07:28:35.997Z,9.18
2024-02-29T07:31:42.707Z,9.25
2024-02-29T07:34:45.645Z,9.28
2024-02-29T07:37:50.047Z,9.43
2024-02-29T07:40:53.832Z,9.35
2024-02-29T07:43:56.947Z,9.49
2024-02-29T07:46:59.716Z,9.92
2024-02-29T07:50:06.826Z,10.19
2024-02-29T07:53:10.310Z,10.09
2024-02-29T07:56:16.156Z,9.94
2024-02-29T07:59:18.881Z,9.91
2024-02-29T08:02:24.687Z,9.92
2024-02-29T08:05:28.060Z,10.28
2024-02-29T08:08:30.810Z,10.92
2024-02-29T08:11:33.576Z,11.15
2024-02-29T08:14:36.557Z,11.99
2024-02-29T08:17:39.426Z,11.98
2024-02-29T08:20:42.636Z,13.19
2024-02-29T08:23:47.362Z,12.73
2024-02-29T08:26:50.177Z,12.34
2024-02-29T08:29:53.007Z,12.17
2024-02-29T08:32:55.856Z,11.68
2024-02-29T08:35:59.108Z,12.10
2024-02-29T08:39:02.553Z,12.17
2024-02-29T08:42:05.598Z,12.94
2024-02-29T08:45:10.437Z,13.11
2024-02-29T08:48:13.454Z,13.79
2024-02-29T08:51:16.332Z,13.50
2024-02-29T08:54:19.061Z,12.99
2024-02-29T08:57:22.196Z,14.00
2024-02-29T09:00:25.382Z,13.14
2024-02-29T09:03:28.489Z,12.70
2024-02-29T09:06:41.261Z,12.21
2024-02-29T09:09:45.039Z,12.41
2024-02-29T09:12:48.047Z,12.03
2024-02-29T09:16:17.494Z,11.93
2024-02-29T09:19:20.430Z,12.70
2024-02-29T09:22:23.631Z,13.38
2024-02-29T09:25:26.429Z,12.83
2024-02-29T09:28:29.218Z,14.07
2024-02-29T09:31:33.018Z,14.16
2024-02-29T09:35:37.397Z,13.51
2024-02-29T09:38:40.334Z,14.71
2024-02-29T09:41:59.795Z,14.62
2024-02-29T09:45:38.930Z,14.37
2024-02-29T09:48:42.263Z,14.68
2024-02-29T09:51:46.091Z,14.97
2024-02-29T09:54:50.057Z,15.54
2024-02-29T09:57:54.129Z,15.74
2024-02-29T10:00:59.659Z,16.00
2024-02-29T10:04:04.651Z,16.03
2024-02-29T10:07:09.680Z,16.45
2024-02-29T10:10:18.210Z,16.14
2024-02-29T10:13:21.321Z,15.59
2024-02-29T10:16:27.118Z,15.54
2024-02-29T10:19:32.416Z,15.25
2024-02-29T10:22:35.205Z,15.17
2024-02-29T10:25:39.881Z,14.84
2024-02-29T10:28:43.768Z,14.83
2024-02-29T10:31:46.784Z,14.49
2024-02-29T10:34:50.118Z,15.36
2024-02-29T10:37:56.743Z,16.08
2024-02-29T10:41:04.387Z,15.03
2024-02-29T10:44:09.820Z,15.54
2024-02-29T10:47:16.422Z,15.77
2024-02-29T10:50:27.008Z,15.73
2024-02-29T10:54:01.492Z,15.63
2024-02-29T10:57:15.819Z,16.37
2024-02-29T11:00:21.750Z,16.00
2024-02-29T11:03:28.589Z,15.28
2024-02-29T11:07:01.252Z,15.86
2024-02-29T11:10:07.451Z,16.09
2024-02-29T11:13:11.043Z,16.24
2024-02-29T11:16:15.803Z,16.35
2024-02-29T11:19:19.986Z,15.73
2024-02-29T11:22:33.069Z,15.27
2024-02-29T11:25:36.021Z,14.83
2024-02-29T11:28:44.222Z,14.84
2024-02-29T11:31:51.801Z,15.36
2024-02-29T11:34:56.228Z,15.34
2024-02-29T11:38:02.592Z,15.43
2024-02-29T11:41:21.655Z,15.32
2024-02-29T11:44:24.682Z,15.21
2024-02-29T11:47:28.920Z,14.70
2024-02-29T11:54:22.060Z,15.15
2024-02-29T11:57:27.323Z,14.82
2024-02-29T12:00:39.928Z,14.89
2024-02-29T12:03:43.151Z,14.99
2024-02-29T12:06:48.387Z,14.75
2024-02-29T12:09:51.493Z,14.78
2024-02-29T12:12:54.526Z,14.67
2024-02-29T12:15:58.669Z,14.73
2024-02-29T12:19:02.097Z,14.30
2024-02-29T12:22:15.215Z,14.21
2024-02-29T12:25:19.187Z,14.51
2024-02-29T12:28:22.020Z,14.65
2024-02-29T12:31:24.859Z,14.36
2024-02-29T12:34:29.031Z,14.16
2024-02-29T12:37:31.891Z,14.19
2024-02-29T12:40:35.022Z,14.16
2024-02-29T12:43:38.312Z,14.12
2024-02-29T12:46:40.985Z,14.10
2024-02-29T12:49:44.381Z,14.03
2024-02-29T12:52:49.842Z,14.27
2024-02-29T12:55:53.663Z,14.15
2024-02-29T12:58:56.569Z,14.11
2024-02-29T13:02:01.141Z,14.15
2024-02-29T13:05:04.567Z,14.16
2024-02-29T13:08:10.042Z,14.21
2024-02-29T13:11:13.041Z,14.36
2024-02-29T13:14:16.949Z,14.29
2024-02-29T13:17:21.110Z,14.24
2024-02-29T13:20:23.912Z,14.31
2024-02-29T13:23:26.679Z,14.50
2024-02-29T13:26:29.402Z,14.31
2024-02-29T13:29:34.071Z,14.31
2024-02-29T13:32:36.874Z,14.16
2024-02-29T13:35:39.629Z,14.07
2024-02-29T13:38:42.764Z,14.04
2024-02-29T13:41:46.562Z,14.04
2024-02-29T13:44:51.059Z,14.11
2024-02-29T13:47:55.900Z,14.25
2024-02-29T13:50:59.314Z,14.27
2024-02-29T13:54:02.236Z,14.33
2024-02-29T13:57:05.630Z,14.39
2024-02-29T14:00:10.167Z,14.38
2024-02-29T14:03:16.859Z,14.19
2024-02-29T14:06:20.193Z,14.29
2024-02-29T14:09:22.907Z,14.11
2024-02-29T14:12:28.525Z,13.98
2024-02-29T14:15:31.392Z,13.97
2024-02-29T14:18:34.702Z,14.11
2024-02-29T14:21:37.632Z,14.20
2024-02-29T14:24:40.529Z,14.24
2024-02-29T14:27:43.790Z,14.24
2024-02-29T14:30:46.649Z,14.50
2024-02-29T14:33:51.845Z,14.86
2024-02-29T14:36:55.161Z,15.30
2024-02-29T14:39:58.724Z,15.58
2024-02-29T14:43:01.755Z,16.07
2024-02-29T14:46:07.818Z,15.89
2024-02-29T14:49:12.071Z,16.45
2024-02-29T14:52:15.185Z,15.90
2024-02-29T14:55:18.443Z,16.01
2024-02-29T14:58:22.406Z,16.12
2024-02-29T15:01:25.939Z,16.59
2024-02-29T15:04:29.032Z,16.44
2024-02-29T15:07:33.505Z,16.13
2024-02-29T15:10:36.444Z,15.95
2024-02-29T15:13:39.549Z,15.61
2024-02-29T15:16:46.702Z,15.20
2024-02-29T15:19:51.543Z,15.33
2024-02-29T15:23:04.830Z,14.87
2024-02-29T15:26:12.077Z,15.10
2024-02-29T15:29:16.415Z,14.65
2024-02-29T15:32:21.318Z,14.55
2024-02-29T15:35:31.589Z,14.59
2024-02-29T15:38:34.471Z,14.45
2024-02-29T15:41:38.636Z,14.21
2024-02-29T15:44:41.393Z,14.20
2024-02-29T15:47:44.897Z,14.13
2024-02-29T15:50:47.625Z,14.17
2024-02-29T15:53:50.379Z,14.02
2024-02-29T15:56:53.269Z,13.92
2024-02-29T15:59:57.014Z,13.81
2024-02-29T16:02:59.800Z,13.68
2024-02-29T16:06:02.545Z,13.58
2024-02-29T16:09:05.841Z,13.55
2024-02-29T16:12:12.578Z,13.50
2024-02-29T16:15:16.275Z,13.36
2024-02-29T16:18:18.991Z,13.28
2024-02-29T16:21:22.148Z,13.21
2024-02-29T16:24:24.916Z,13.12
2024-02-29T16:27:27.709Z,13.03
2024-02-29T16:30:30.814Z,12.95
2024-02-29T16:33:33.525Z,12.86
2024-02-29T16:36:38.289Z,12.75
2024-02-29T16:39:41.409Z,12.69
2024-02-29T16:42:56.275Z,12.59
2024-02-29T16:46:00.020Z,12.52
2024-02-29T16:49:03.263Z,12.45
2024-02-29T16:52:06.636Z,12.43
2024-02-29T16:55:09.866Z,12.38
2024-02-29T16:58:14.179Z,12.28
2024-02-29T17:01:17.075Z,12.20
2024-02-29T17:04:20.302Z,12.10
2024-02-29T17:07:23.632Z,11.98
2024-02-29T17:10:27.776Z,11.94
2024-02-29T17:13:30.883Z,11.80
2024-02-29T17:16:34.016Z,11.68
2024-02-29T17:19:36.766Z,11.58
2024-02-29T17:22:40.442Z,11.48
2024-02-29T17:25:43.400Z,11.44
2024-02-29T17:28:48.254Z,11.40
2024-02-29T17:31:51.327Z,11.38
2024-02-29T17:34:54.100Z,11.29
2024-02-29T17:37:58.412Z,11.09
2024-02-29T17:41:01.097Z,10.95
2024-02-29T17:44:04.142Z,10.81
2024-02-29T17:47:06.984Z,10.67
2024-02-29T17:50:20.856Z,10.60
2024-02-29T17:53:24.876Z,10.42
2024-02-29T17:56:27.637Z,10.46
2024-02-29T17:59:30.751Z,10.30
2024-02-29T18:02:34.211Z,10.15
2024-02-29T18:05:37.367Z,10.09
2024-02-29T18:08:40.175Z,9.99
2024-02-29T18:11:42.959Z,9.90
2024-02-29T18:14:45.788Z,9.90
2024-02-29T18:17:49.166Z,9.93
2024-02-29T18:20:52.193Z,10.08
2024-02-29T18:23:55.454Z,10.03
2024-02-29T18:26:58.679Z,9.96
2024-02-29T18:30:01.539Z,10.01
2024-02-29T18:33:04.994Z,10.20
2024-02-29T18:36:08.411Z,10.19
2024-02-29T18:39:15.147Z,10.09
2024-02-29T18:42:18.581Z,10.00
2024-02-29T18:45:21.671Z,9.93
2024-02-29T18:48:24.400Z,9.86
2024-02-29T18:51:27.767Z,9.76
2024-02-29T18:54:30.784Z,9.70
2024-02-29T18:57:33.462Z,9.63
2024-02-29T19:00:36.621Z,9.57
2024-02-29T19:03:39.591Z,9.56
2024-02-29T19:06:42.979Z,9.57
2024-02-29T19:09:46.829Z,9.45
2024-02-29T19:12:49.725Z,9.41
2024-02-29T19:15:53.148Z,9.52
2024-02-29T19:18:56.556Z,9.46
2024-02-29T19:21:59.774Z,9.31
2024-02-29T19:25:02.497Z,9.25
2024-02-29T19:28:05.478Z,9.40
2024-02-29T19:31:08.647Z,9.42
2024-02-29T19:34:11.874Z,9.41
2024-02-29T19:37:14.609Z,9.49
2024-02-29T19:40:17.527Z,9.57
2024-02-29T19:43:23.533Z,9.58
2024-02-29T19:46:26.908Z,9.63
2024-02-29T19:49:29.648Z,9.68
2024-02-29T19:52:35.913Z,9.60
2024-02-29T19:55:43.465Z,9.49
2024-02-29T19:58:46.257Z,9.52
2024-02-29T20:01:49.336Z,9.40
2024-02-29T20:04:52.756Z,9.29
2024-02-29T20:07:55.901Z,9.25
2024-02-29T20:10:58.823Z,9.25
2024-02-29T20:14:05.438Z,9.24
2024-02-29T20:17:08.958Z,9.33
2024-02-29T20:20:12.269Z,9.41
2024-02-29T20:23:15.173Z,9.35
2024-02-29T20:26:18.306Z,9.49
2024-02-29T20:29:21.335Z,9.55
2024-02-29T20:32:24.166Z,9.56
2024-02-29T20:35:26.874Z,9.62
2024-02-29T20:38:30.914Z,9.61
2024-02-29T20:41:33.665Z,9.50
2024-02-29T20:44:37.019Z,9.49
2024-02-29T20:47:40.531Z,9.48
2024-02-29T20:50:43.297Z,9.43
2024-02-29T20:53:45.994Z,9.34
2024-02-29T20:56:48.700Z,9.34
2024-02-29T20:59:51.602Z,9.35
2024-02-29T21:02:54.930Z,9.33
2024-02-29T21:05:58.402Z,9.35
2024-02-29T21:09:01.191Z,9.30
2024-02-29T21:12:04.127Z,9.37
2024-02-29T21:15:07.270Z,9.27
2024-02-29T21:18:10.116Z,9.22
2024-02-29T21:21:12.894Z,9.19
2024-02-29T21:24:16.138Z,9.24
2024-02-29T21:27:18.888Z,9.22
2024-02-29T21:30:21.638Z,9.19
2024-02-29T21:33:24.414Z,9.12
2024-02-29T21:36:27.194Z,9.07
2024-02-29T21:39:36.556Z,9.05
2024-02-29T21:42:43.219Z,9.01
2024-02-29T21:45:46.050Z,8.93
2024-02-29T21:48:50.076Z,8.87
2024-02-29T21:51:52.834Z,8.89
2024-02-29T21:54:55.625Z,8.93
2024-02-29T21:57:58.376Z,8.96
2024-02-29T22:01:01.301Z,9.06
2024-02-29T22:04:04.213Z,9.12
2024-02-29T22:07:07.373Z,9.03
2024-02-29T22:10:11.623Z,9.04
2024-02-29T22:13:14.399Z,9.03
2024-02-29T22:16:17.135Z,9.07
2024-02-29T22:19:20.727Z,9.09
2024-02-29T22:22:23.641Z,9.06
2024-02-29T22:25:26.527Z,9.03
2024-02-29T22:28:29.317Z,8.93
2024-02-29T22:31:32.512Z,8.89
2024-02-29T22:34:35.369Z,8.79
2024-02-29T22:37:38.470Z,8.86
2024-02-29T22:40:41.220Z,8.86
2024-02-29T22:43:44.061Z,8.89
2024-02-29T22:46:47.133Z,8.91
2024-02-29T22:49:49.850Z,8.84
2024-02-29T22:52:52.547Z,8.80
2024-02-29T22:55:56.495Z,8.81
2024-02-29T22:58:59.166Z,8.77
2024-02-29T23:02:02.162Z,8.69
2024-02-29T23:05:06.506Z,8.56
2024-02-29T23:08:11.588Z,8.58
2024-02-29T23:11:14.443Z,8.48
2024-02-29T23:14:17.314Z,8.44
2024-02-29T23:17:20.244Z,8.47
2024-02-29T23:20:23.754Z,8.50
2024-02-29T23:23:26.408Z,8.57
2024-02-29T23:26:29.064Z,8.53
2024-02-29T23:29:31.785Z,8.55
2024-02-29T23:32:35.190Z,8.55
2024-02-29T23:35:37.931Z,8.56
2024-02-29T23:38:40.627Z,8.56
2024-02-29T23:41:43.329Z,8.53
2024-02-29T23:44:46.030Z,8.48
2024-02-29T23:47:48.727Z,8.46
2024-02-29T23:50:51.448Z,8.44
2024-02-29T23:53:54.386Z,8.44
2024-02-29T23:56:59.935Z,8.42
